Time;durP1;ratioP1;P1;durP2;ratioP2;P2;SDS_P1;SDS_P2;PMS_P1;PMS_P2;Temp;Humidity;BMP_temperature;BMP_pressure;BME280_temperature;BME280_humidity;BME280_pressure;Samples;Min_cycle;Max_cycle;Signal;HPM_P1;HPM_P2
2022/09/28 03:04:41;;;;;;;6.80;4.95;;;;;;;7.86;65.24;99038.22;4898410;29;1224805;-64
2022/09/28 03:07:12;;;;;;;8.70;5.60;;;;;;;7.78;65.56;99037.47;4947232;29;20055;-63
2022/09/28 03:09:48;;;;;;;8.00;5.80;;;;;;;7.82;65.52;99033.41;4934406;29;20054;-63
2022/09/28 03:12:18;;;;;;;8.90;5.93;;;;;;;7.75;65.73;99032.50;4948810;29;20058;-63
2022/09/28 03:14:45;;;;;;;9.20;5.43;;;;;;;7.69;65.74;99017.22;4951881;29;20508;-64
2022/09/28 03:17:11;;;;;;;7.88;5.28;;;;;;;7.68;65.65;99031.56;4948497;29;20062;-63
2022/09/28 03:19:38;;;;;;;14.18;6.00;;;;;;;7.52;66.31;99014.69;4949371;29;20051;-63
2022/09/28 03:22:04;;;;;;;8.63;6.38;;;;;;;7.50;66.33;99026.56;4935368;29;20431;-64
2022/09/28 03:24:30;;;;;;;8.52;6.10;;;;;;;7.56;65.99;99017.81;4936034;29;20050;-63
2022/09/28 03:26:57;;;;;;;9.82;6.40;;;;;;;7.57;66.09;99015.00;4926768;29;20052;-63
2022/09/28 03:29:23;;;;;;;8.00;5.80;;;;;;;7.86;65.13;99018.72;4933827;29;20055;-64
2022/09/28 03:31:50;;;;;;;9.60;6.25;;;;;;;7.76;65.54;99018.94;4926109;29;20047;-64
2022/09/28 03:34:16;;;;;;;9.18;6.47;;;;;;;7.68;65.50;99015.56;4934109;29;20051;-64
2022/09/28 03:36:43;;;;;;;10.75;6.70;;;;;;;8.00;65.02;99012.53;4930069;29;20058;-64
2022/09/28 03:39:09;;;;;;;11.93;6.82;;;;;;;8.18;64.04;99014.00;4953119;29;20106;-64
2022/09/28 03:41:36;;;;;;;9.88;6.30;;;;;;;7.64;65.61;99015.91;4953154;29;20047;-64
2022/09/28 03:44:02;;;;;;;9.73;6.70;;;;;;;7.33;67.02;99015.25;4953945;29;20043;-64
2022/09/28 03:46:29;;;;;;;10.05;6.85;;;;;;;7.53;66.33;99016.34;4953586;29;20047;-64
2022/09/28 03:48:57;;;;;;;10.90;6.72;;;;;;;7.16;67.36;99011.88;4954436;29;20051;-64
2022/09/28 03:51:24;;;;;;;10.43;6.35;;;;;;;7.42;67.21;99011.47;4952058;28;20051;-64
2022/09/28 03:53:51;;;;;;;12.13;7.57;;;;;;;7.52;66.33;99005.88;4953311;29;20043;-64
2022/09/28 03:56:17;;;;;;;12.98;6.72;;;;;;;7.52;66.47;99000.53;4952515;29;20051;-64
2022/09/28 03:58:44;;;;;;;11.13;6.60;;;;;;;7.14;67.64;99004.03;4952696;28;20044;-64
2022/09/28 04:01:12;;;;;;;16.15;7.00;;;;;;;7.34;66.97;98992.88;4953667;29;20051;-64
2022/09/28 04:03:43;;;;;;;9.13;7.00;;;;;;;7.43;66.81;99003.28;4953833;29;20059;-64
2022/09/28 04:06:10;;;;;;;11.30;7.03;;;;;;;7.43;66.93;98999.81;4952673;29;20058;-64
2022/09/28 04:08:37;;;;;;;8.57;6.50;;;;;;;7.38;66.98;99008.31;4953338;29;20043;-66
2022/09/28 04:11:04;;;;;;;11.43;6.45;;;;;;;7.28;67.25;99006.94;4952672;29;20488;-64
2022/09/28 04:13:30;;;;;;;10.93;8.10;;;;;;;7.07;67.59;99003.09;4951959;28;20062;-64
2022/09/28 04:15:59;;;;;;;10.82;7.15;;;;;;;7.17;67.95;98994.84;4951870;28;20051;-64
2022/09/28 04:18:26;;;;;;;16.30;7.53;;;;;;;6.96;68.68;98998.22;4953610;29;20050;-64
2022/09/28 04:20:58;;;;;;;11.13;7.78;;;;;;;7.19;67.74;98999.00;4943961;29;20058;-64
2022/09/28 04:23:26;;;;;;;13.48;7.28;;;;;;;7.20;67.93;98994.50;4953163;29;20414;-64
2022/09/28 04:25:53;;;;;;;9.02;7.55;;;;;;;6.98;68.52;98993.53;4952738;29;20537;-63
2022/09/28 04:31:12;;;;;;;10.98;7.53;;;;;;;7.13;68.58;98988.25;4952770;29;20487;-63
2022/09/28 04:33:38;;;;;;;9.98;7.95;;;;;;;6.99;68.81;98994.38;4952704;29;20480;-64
2022/09/28 04:36:05;;;;;;;10.70;7.50;;;;;;;7.09;68.46;98995.78;4953081;29;20059;-69
2022/09/28 04:41:13;;;;;;;11.13;7.88;;;;;;;7.12;68.12;98992.75;5095549;23;19910;-67
2022/09/28 04:43:39;;;;;;;12.38;7.80;;;;;;;7.26;68.21;98987.63;4993939;28;20041;-67
2022/09/28 04:46:06;;;;;;;13.60;8.20;;;;;;;6.93;68.98;98985.22;5011953;28;20464;-68
2022/09/28 04:48:33;;;;;;;11.25;7.32;;;;;;;6.90;69.01;98985.59;5006057;28;20053;-68
2022/09/28 04:50:59;;;;;;;11.00;7.65;;;;;;;6.81;69.27;98982.16;4992464;28;20049;-67
2022/09/28 04:53:26;;;;;;;11.57;7.78;;;;;;;6.86;68.99;98992.28;4992704;28;20051;-67
2022/09/28 04:56:04;;;;;;;11.07;7.90;;;;;;;7.21;68.42;98998.00;4993742;28;20047;-68
2022/09/28 04:58:31;;;;;;;11.80;8.35;;;;;;;7.15;67.98;99002.19;5010351;28;20069;-68
2022/09/28 05:01:04;;;;;;;14.52;8.60;;;;;;;7.38;68.06;98992.31;5012682;28;20046;-67
2022/09/28 05:03:32;;;;;;;11.90;8.18;;;;;;;7.52;67.51;99006.69;5009912;28;20081;-67
2022/09/28 05:05:58;;;;;;;14.65;8.63;;;;;;;7.10;68.36;99002.75;5015054;28;20046;-69
2022/09/28 05:08:26;;;;;;;12.43;7.60;;;;;;;7.11;68.20;99007.06;5015083;28;20051;-67
2022/09/28 05:10:58;;;;;;;13.45;8.45;;;;;;;7.27;67.75;98997.28;5015441;28;20052;-67
2022/09/28 05:13:26;;;;;;;16.10;8.02;;;;;;;7.13;68.17;99004.25;5015127;28;20046;-67
2022/09/28 05:15:54;;;;;;;14.38;7.90;;;;;;;6.65;69.20;99008.94;5014733;28;20097;-67
2022/09/28 05:18:26;;;;;;;13.30;8.15;;;;;;;6.64;69.94;99002.78;5015742;28;20054;-67
2022/09/28 05:20:52;;;;;;;13.85;8.10;;;;;;;6.64;70.18;99008.09;5015012;28;20046;-67
2022/09/28 05:23:19;;;;;;;13.95;8.90;;;;;;;6.76;70.04;99007.69;5015666;28;20038;-68
2022/09/28 05:25:45;;;;;;;15.93;8.60;;;;;;;6.83;69.64;99005.97;5015106;28;20034;-67
2022/09/28 05:28:12;;;;;;;13.68;8.70;;;;;;;6.99;69.07;99003.19;5015444;28;20136;-67
2022/09/28 05:30:39;;;;;;;11.80;7.72;;;;;;;6.97;69.61;99005.19;5015426;28;20049;-67
2022/09/28 05:33:05;;;;;;;14.68;8.80;;;;;;;7.18;68.83;99008.00;5015050;28;20040;-67
2022/09/28 05:35:32;;;;;;;21.02;8.52;;;;;;;6.94;69.83;98998.41;4996891;28;20050;-68
2022/09/28 05:38:04;;;;;;;17.98;8.45;;;;;;;6.87;69.99;99007.25;5013616;28;20046;-67
2022/09/28 05:40:31;;;;;;;14.80;8.68;;;;;;;6.95;69.82;99000.06;4993721;28;20051;-67
2022/09/28 05:42:59;;;;;;;16.27;8.68;;;;;;;7.21;68.83;99000.66;4995537;28;20062;-67
2022/09/28 05:45:28;;;;;;;16.92;8.68;;;;;;;7.31;68.39;98995.91;4995083;28;20110;-69
2022/09/28 05:47:55;;;;;;;12.82;8.90;;;;;;;7.46;67.93;98990.56;4991393;28;20079;-66
2022/09/28 05:50:21;;;;;;;17.73;8.63;;;;;;;6.90;70.04;98988.25;4974217;28;20061;-68
2022/09/28 05:52:57;;;;;;;13.65;8.88;;;;;;;7.17;68.72;98987.69;4974668;28;20047;-67
2022/09/28 05:55:24;;;;;;;13.25;8.02;;;;;;;7.35;68.46;98984.69;4975336;28;20055;-67
2022/09/28 05:57:50;;;;;;;16.08;8.80;;;;;;;7.85;67.27;98966.34;4975403;28;20051;-67
2022/09/28 06:00:17;;;;;;;16.60;8.50;;;;;;;7.97;66.32;98972.03;4974637;28;20057;-67
2022/09/28 06:02:44;;;;;;;13.70;7.97;;;;;;;7.64;67.44;98972.41;4974215;28;20042;-68
2022/09/28 06:05:10;;;;;;;12.10;8.63;;;;;;;7.95;66.60;98964.22;4975653;28;20078;-68
2022/09/28 06:07:37;;;;;;;16.17;7.70;;;;;;;8.03;66.27;98961.44;4974617;28;20051;-67
2022/09/28 06:10:04;;;;;;;13.82;7.68;;;;;;;8.30;65.52;98961.75;4975664;28;20047;-68
2022/09/28 06:12:32;;;;;;;11.82;8.45;;;;;;;8.12;65.77;98965.66;4968768;28;20043;-67
2022/09/28 06:15:00;;;;;;;19.52;8.82;;;;;;;8.14;65.54;98968.13;4988558;28;20035;-67
2022/09/28 06:17:26;;;;;;;12.02;8.27;;;;;;;7.48;67.40;98962.72;4974982;28;20055;-68
2022/09/28 06:19:53;;;;;;;15.95;8.05;;;;;;;7.22;68.75;98962.31;4975199;28;20510;-67
2022/09/28 06:22:19;;;;;;;14.07;8.20;;;;;;;7.38;68.08;98959.47;4975739;28;20081;-67
2022/09/28 06:24:45;;;;;;;14.73;9.50;;;;;;;7.84;66.94;98964.66;4976208;28;20103;-67
2022/09/28 06:27:12;;;;;;;15.27;8.93;;;;;;;7.66;67.02;98965.00;4974815;28;20111;-67
2022/09/28 06:29:38;;;;;;;14.55;9.13;;;;;;;8.05;66.39;98961.22;4972057;28;20051;-67
2022/09/28 06:32:06;;;;;;;13.45;10.15;;;;;;;8.31;65.03;98958.06;4975161;28;20047;-67
2022/09/28 06:34:33;;;;;;;18.35;9.80;;;;;;;8.37;65.34;98965.31;4975734;28;20059;-68
2022/09/28 06:37:03;;;;;;;13.60;8.00;;;;;;;8.34;64.95;98961.16;4974047;28;20037;-69
2022/09/28 06:39:29;;;;;;;16.08;8.30;;;;;;;8.50;64.23;98957.41;4977466;28;20060;-69
2022/09/28 06:41:56;;;;;;;16.83;11.95;;;;;;;9.06;63.09;98957.53;4994022;28;20074;-68
2022/09/28 06:44:23;;;;;;;16.50;9.93;;;;;;;9.19;62.50;98958.66;4993588;28;20110;-68
2022/09/28 06:46:51;;;;;;;15.38;8.90;;;;;;;9.48;61.03;98955.81;4993620;28;20042;-68
2022/09/28 06:49:18;;;;;;;13.75;8.38;;;;;;;9.27;60.76;98954.03;5008849;28;20034;-68
2022/09/28 06:51:45;;;;;;;8.50;7.13;;;;;;;10.07;59.45;98953.66;5013359;28;20046;-68
2022/09/28 06:54:11;;;;;;;14.65;7.65;;;;;;;10.92;57.46;98952.19;5014289;28;20050;-68
2022/09/28 06:56:37;;;;;;;16.73;8.48;;;;;;;11.50;54.83;98948.88;5013249;28;20037;-69
2022/09/28 06:59:04;;;;;;;10.35;6.97;;;;;;;12.33;52.70;98947.16;5013401;28;20051;-70
2022/09/28 07:01:31;;;;;;;11.27;7.35;;;;;;;12.81;51.24;98953.94;5013146;28;20117;-70
2022/09/28 07:03:57;;;;;;;8.95;6.60;;;;;;;12.93;50.16;98948.66;5010251;28;20069;-69
2022/09/28 07:06:25;;;;;;;9.48;6.38;;;;;;;13.20;49.42;98955.47;5011524;28;20061;-69
2022/09/28 07:08:51;;;;;;;11.18;6.30;;;;;;;13.85;47.62;98960.47;5011519;28;20050;-70
2022/09/28 07:11:38;;;;;;;7.70;6.20;;;;;;;14.15;47.12;98960.53;5007179;28;20046;-70
2022/09/28 07:14:05;;;;;;;9.10;6.15;;;;;;;14.16;46.54;98954.09;5010399;28;20065;-70
2022/09/28 07:16:32;;;;;;;6.75;5.75;;;;;;;14.36;45.79;98961.06;4981398;28;22138;-70
2022/09/28 07:19:18;;;;;;;10.05;6.70;;;;;;;14.43;45.02;98961.84;5009465;28;20073;-71
2022/09/28 07:21:45;;;;;;;7.25;5.68;;;;;;;13.67;46.89;98949.66;5010931;28;20026;-70
2022/09/28 07:24:24;;;;;;;6.60;5.30;;;;;;;14.75;44.57;98957.03;5000977;28;20061;-71
2022/09/28 07:26:51;;;;;;;6.50;4.80;;;;;;;14.92;44.03;98949.09;5006281;28;20053;-71
2022/09/28 07:29:17;;;;;;;10.07;5.25;;;;;;;14.98;43.52;98954.41;5008269;28;20050;-69
2022/09/28 07:31:44;;;;;;;8.55;5.93;;;;;;;14.48;44.27;98951.97;5008473;28;20046;-69
2022/09/28 07:34:10;;;;;;;8.18;5.57;;;;;;;13.87;45.61;98950.25;5009503;28;20050;-71
2022/09/28 07:36:37;;;;;;;11.05;5.28;;;;;;;14.69;44.25;98957.94;4999417;28;20056;-70
2022/09/28 07:39:04;;;;;;;9.52;5.53;;;;;;;14.81;43.89;98958.81;4981763;28;20050;-69
2022/09/28 07:41:31;;;;;;;7.80;5.60;;;;;;;14.00;45.41;98957.38;5006733;28;20463;-70
2022/09/28 07:44:04;;;;;;;8.18;5.60;;;;;;;13.97;44.82;98965.91;5006371;28;20054;-71
2022/09/28 07:46:34;;;;;;;13.70;5.97;;;;;;;13.06;47.06;98959.31;5006154;28;20057;-70
2022/09/28 07:49:04;;;;;;;8.70;6.28;;;;;;;13.58;46.36;98967.97;4995606;28;20050;-70
2022/09/28 07:51:36;;;;;;;9.70;6.43;;;;;;;12.17;49.57;98966.44;4975377;28;20051;-69
2022/09/28 07:54:04;;;;;;;11.18;6.57;;;;;;;12.19;50.54;98960.88;4991930;28;20122;-71
2022/09/28 07:56:32;;;;;;;12.13;6.20;;;;;;;12.21;51.03;98958.78;4992867;28;20403;-71
2022/09/28 07:58:59;;;;;;;10.18;6.78;;;;;;;11.28;53.13;98962.53;4992318;28;20065;-69
2022/09/28 08:01:25;;;;;;;19.60;7.05;;;;;;;11.10;54.18;98959.63;4975370;28;20055;-71
2022/09/28 08:03:54;;;;;;;11.43;7.70;;;;;;;11.46;53.50;98960.03;4992846;28;20043;-70
2022/09/28 08:06:22;;;;;;;12.15;7.72;;;;;;;11.75;52.52;98959.78;4991386;28;20110;-71
2022/09/28 08:08:49;;;;;;;10.93;6.82;;;;;;;11.61;52.39;98956.28;4991582;28;20047;-70
2022/09/28 08:11:17;;;;;;;9.80;6.80;;;;;;;10.66;54.37;98967.25;4982832;28;20070;-71
2022/09/28 08:13:45;;;;;;;11.57;7.32;;;;;;;11.97;51.59;98958.50;4990459;28;20082;-70
2022/09/28 08:16:11;;;;;;;12.80;7.32;;;;;;;12.24;50.58;98959.19;4985592;28;20047;-70
2022/09/28 08:18:38;;;;;;;10.95;6.53;;;;;;;12.88;49.08;98958.22;4991264;28;20047;-71
2022/09/28 08:23:51;;;;;;;11.18;7.10;;;;;;;12.37;49.87;98967.19;4991085;28;20037;-70
2022/09/28 08:26:18;;;;;;;9.85;6.70;;;;;;;12.61;49.81;98973.69;4989904;28;20085;-70
2022/09/28 08:28:46;;;;;;;14.65;7.10;;;;;;;12.30;50.32;98969.09;4990827;28;20038;-70
2022/09/28 08:31:13;;;;;;;11.45;6.88;;;;;;;12.13;50.64;98970.63;4990918;28;20058;-71
2022/09/28 08:33:40;;;;;;;7.82;6.18;;;;;;;11.74;50.69;98976.94;4990895;28;20050;-70
2022/09/28 08:36:08;;;;;;;9.20;5.85;;;;;;;11.14;52.08;98979.69;4989435;28;20115;-71
2022/09/28 08:38:35;;;;;;;11.75;6.20;;;;;;;11.06;52.46;98971.81;4990049;28;20043;-71
2022/09/28 08:41:11;;;;;;;11.73;7.32;;;;;;;10.83;53.68;98980.28;4993624;28;20053;-71
2022/09/28 08:44:00;;;;;;;11.45;5.97;;;;;;;10.82;53.21;98979.44;4993173;28;20035;-71
2022/09/28 08:46:43;;;;;;;11.85;5.82;;;;;;;10.84;53.58;98985.44;4994365;28;20043;-71
2022/09/28 08:49:17;;;;;;;12.52;6.50;;;;;;;10.55;54.64;98983.94;5007322;28;20065;-70
2022/09/28 08:51:58;;;;;;;10.43;6.10;;;;;;;10.64;54.36;98976.50;5014123;28;20061;-70
2022/09/28 08:54:35;;;;;;;11.98;5.90;;;;;;;10.46;54.05;98985.13;5012314;28;20081;-70
2022/09/28 08:57:09;;;;;;;12.15;5.57;;;;;;;10.59;54.18;98984.38;5013097;28;20036;-70
2022/09/28 08:59:57;;;;;;;9.20;4.70;;;;;;;10.61;52.76;98976.91;5013342;28;20076;-71
2022/09/28 09:02:38;;;;;;;6.32;3.80;;;;;;;11.04;51.32;98976.59;5013621;28;20046;-69
2022/09/28 09:05:12;;;;;;;6.97;3.87;;;;;;;11.91;49.93;98978.97;5014391;28;20053;-71
2022/09/28 09:07:41;;;;;;;9.18;4.10;;;;;;;12.08;49.38;98978.50;5014423;28;20270;-71
2022/09/28 09:10:34;;;;;;;9.65;3.90;;;;;;;12.16;48.81;98987.13;5012904;28;20058;-70
2022/09/28 09:13:31;;;;;;;12.63;3.42;;;;;;;13.12;46.59;98977.31;5013530;28;20042;-70
2022/09/28 09:16:10;;;;;;;8.02;2.92;;;;;;;13.85;44.52;98978.50;5012166;28;20054;-71
2022/09/28 09:18:46;;;;;;;5.93;2.88;;;;;;;14.10;43.79;98981.94;5011521;28;20046;-71
2022/09/28 09:21:39;;;;;;;4.18;2.58;;;;;;;14.82;42.29;98981.25;5010192;28;20050;-70
2022/09/28 09:24:35;;;;;;;4.50;2.55;;;;;;;15.46;40.15;98977.69;5009971;28;20042;-71
2022/09/28 09:27:13;;;;;;;4.07;2.08;;;;;;;16.65;38.64;98971.84;5010682;28;20073;-72
2022/09/28 09:30:07;;;;;;;5.70;2.95;;;;;;;15.27;40.23;98981.56;5008813;28;20046;-71
2022/09/28 09:32:52;;;;;;;4.28;2.00;;;;;;;14.93;40.90;98981.25;5006815;28;20046;-71
2022/09/28 09:35:26;;;;;;;5.20;1.80;;;;;;;14.78;40.47;98972.78;5007427;28;20402;-70
2022/09/28 09:38:08;;;;;;;4.47;1.90;;;;;;;13.67;43.56;98972.03;5007149;28;20073;-72
2022/09/28 09:41:01;;;;;;;5.47;1.70;;;;;;;15.58;39.29;98968.78;5001216;28;20054;-72
2022/09/28 09:43:58;;;;;;;8.05;1.77;;;;;;;14.87;40.01;98973.25;5007366;28;20042;-70
2022/09/28 09:46:36;;;;;;;3.50;1.85;;;;;;;15.00;40.33;98976.56;5007481;28;20065;-71
2022/09/28 09:49:18;;;;;;;6.05;1.42;;;;;;;13.98;40.96;98976.50;4995045;28;20047;-71
2022/09/28 09:51:55;;;;;;;4.32;1.63;;;;;;;13.98;41.81;98971.09;4987835;28;20051;-71
2022/09/28 09:54:37;;;;;;;4.35;1.70;;;;;;;14.17;41.62;98966.50;4989703;28;20073;-70
2022/09/28 09:57:28;;;;;;;5.93;1.60;;;;;;;14.66;40.92;98964.59;4989293;28;20046;-72
2022/09/28 09:59:58;;;;;;;5.18;1.60;;;;;;;13.59;41.17;98965.06;4988526;28;20050;-71
2022/09/28 10:02:27;;;;;;;4.40;1.48;;;;;;;13.65;41.71;98970.59;4989260;28;20042;-71
2022/09/28 10:05:23;;;;;;;5.38;1.33;;;;;;;12.72;42.88;98966.78;4988302;28;20111;-71
2022/09/28 10:08:01;;;;;;;4.70;1.30;;;;;;;13.33;42.11;98968.81;4988847;28;20059;-72
2022/09/28 10:10:32;;;;;;;7.13;1.75;;;;;;;13.34;42.29;98966.94;4987972;28;20047;-69
2022/09/28 10:12:59;;;;;;;10.75;1.88;;;;;;;13.09;43.45;98970.47;4986758;28;20042;-71
2022/09/28 10:15:31;;;;;;;9.15;1.52;;;;;;;13.20;42.51;98960.88;4986060;28;20123;-72
2022/09/28 10:18:02;;;;;;;4.53;1.30;;;;;;;13.25;42.76;98963.72;4986196;28;20086;-71
2022/09/28 10:20:33;;;;;;;4.70;1.30;;;;;;;13.29;42.80;98974.88;4987556;28;20054;-72
2022/09/28 10:23:02;;;;;;;4.35;1.35;;;;;;;12.63;44.10;98968.91;4977706;28;20495;-71
2022/09/28 10:25:32;;;;;;;5.22;1.10;;;;;;;12.37;45.17;98967.19;4984509;28;20047;-71
2022/09/28 10:28:01;;;;;;;4.47;1.20;;;;;;;12.50;44.83;98965.47;4986232;28;20115;-71
2022/09/28 10:30:30;;;;;;;4.57;1.10;;;;;;;12.53;45.39;98973.13;4986848;28;20042;-71
2022/09/28 10:33:00;;;;;;;2.80;1.27;;;;;;;12.39;46.43;98969.69;4986555;28;20035;-70
2022/09/28 10:35:30;;;;;;;4.18;1.67;;;;;;;12.40;46.20;98971.31;4985138;28;20042;-71
2022/09/28 10:38:03;;;;;;;4.20;1.73;;;;;;;12.61;46.21;98975.56;4984651;28;20058;-71
2022/09/28 10:40:42;;;;;;;3.45;1.63;;;;;;;11.92;48.55;98967.16;4980054;28;20043;-70
2022/09/28 10:43:37;;;;;;;3.33;1.60;;;;;;;11.62;50.00;98974.03;4984690;28;20079;-71
2022/09/28 10:46:13;;;;;;;5.25;2.03;;;;;;;11.58;50.35;98972.81;4986234;28;20053;-71
2022/09/28 10:48:59;;;;;;;2.90;1.80;;;;;;;11.42;51.32;98985.66;4993098;28;20045;-71
2022/09/28 10:51:48;;;;;;;4.00;1.95;;;;;;;11.12;52.77;98981.72;5003061;28;20053;-71
2022/09/28 10:54:17;;;;;;;6.15;2.00;;;;;;;11.15;52.34;98979.47;5005234;28;20046;-71
2022/09/28 10:56:45;;;;;;;5.60;2.30;;;;;;;11.09;53.05;98985.66;5004346;28;20043;-71
2022/09/28 10:59:30;;;;;;;3.05;1.83;;;;;;;10.65;53.50;98994.25;5003829;28;20050;-71
2022/09/28 11:02:18;;;;;;;5.35;1.92;;;;;;;10.88;53.10;98993.91;5003329;28;20046;-70
2022/09/28 11:04:51;;;;;;;5.75;1.95;;;;;;;11.43;51.49;98979.25;5004399;28;20052;-71
2022/09/28 11:07:23;;;;;;;11.30;2.22;;;;;;;11.14;52.36;98993.09;5005474;28;20046;-71
2022/09/28 11:09:52;;;;;;;2.35;1.55;;;;;;;11.38;51.69;98987.09;5005311;28;20066;-71
2022/09/28 11:12:22;;;;;;;2.80;1.60;;;;;;;10.93;53.63;98983.38;5005211;28;20049;-71
2022/09/28 11:14:56;;;;;;;6.03;2.10;;;;;;;11.19;53.17;98985.25;5006732;28;20042;-71
2022/09/28 11:17:32;;;;;;;5.07;2.35;;;;;;;11.07;54.49;98982.38;5004810;28;20047;-70
2022/09/28 11:20:28;;;;;;;11.50;2.50;;;;;;;11.28;54.16;98983.19;5006576;28;20042;-71
2022/09/28 11:22:57;;;;;;;6.35;2.28;;;;;;;11.39;54.05;98987.94;5007300;28;20034;-70
2022/09/28 11:25:28;;;;;;;6.47;2.53;;;;;;;11.43;53.97;98987.28;5006649;28;20046;-70
2022/09/28 11:28:03;;;;;;;7.55;2.60;;;;;;;11.48;53.53;98989.34;5007032;28;20046;-70
2022/09/28 11:30:44;;;;;;;5.80;2.53;;;;;;;11.15;54.03;98984.84;5005701;28;20050;-71
2022/09/28 11:33:18;;;;;;;6.53;3.63;;;;;;;10.97;54.98;98992.69;5005917;28;20057;-71
2022/09/28 11:36:03;;;;;;;5.40;2.10;;;;;;;11.30;53.99;98987.28;5004795;28;20084;-71
2022/09/28 11:38:46;;;;;;;3.15;2.20;;;;;;;11.54;52.73;98996.56;5006280;28;20049;-71
2022/09/28 11:41:15;;;;;;;5.70;2.40;;;;;;;11.08;53.64;98986.69;4997017;28;20046;-71
2022/09/28 11:43:51;;;;;;;4.35;2.05;;;;;;;11.30;52.60;98986.47;5007767;28;20050;-71
2022/09/28 11:46:23;;;;;;;2.78;1.58;;;;;;;11.02;52.65;98989.38;5006997;28;20403;-71
2022/09/28 11:48:56;;;;;;;4.00;1.70;;;;;;;11.17;51.27;98993.50;4996785;28;20042;-70
2022/09/28 11:51:35;;;;;;;4.20;1.40;;;;;;;11.14;50.92;99001.97;4987208;28;20042;-71
2022/09/28 11:54:36;;;;;;;4.30;1.45;;;;;;;10.78;50.64;98999.66;4977993;28;20122;-70
2022/09/28 11:57:05;;;;;;;;;;;;;;;10.83;50.51;98994.50;4982737;28;20086;-71
2022/09/28 11:59:39;;;;;;;2.75;1.10;;;;;;;10.91;51.18;98998.84;4985516;28;20004;-71
2022/09/28 12:02:13;;;;;;;3.88;1.30;;;;;;;11.34;50.73;99001.94;4985653;28;20054;-71
2022/09/28 12:04:43;;;;;;;3.60;2.03;;;;;;;11.52;50.24;99001.34;4987428;28;20051;-71
2022/09/28 12:07:18;;;;;;;2.95;1.85;;;;;;;11.60;50.32;99002.97;4987220;28;20046;-71
2022/09/28 12:09:53;;;;;;;2.97;1.80;;;;;;;11.42;50.51;98998.25;4985267;28;20081;-71
2022/09/28 12:12:46;;;;;;;3.25;1.15;;;;;;;11.05;50.26;99010.44;4970261;28;20078;-71
2022/09/28 12:15:38;;;;;;;3.17;0.93;;;;;;;11.19;49.93;98999.47;4974869;28;20055;-70
2022/09/28 12:18:34;;;;;;;2.83;1.45;;;;;;;11.38;49.28;98999.72;4990431;28;20152;-71
2022/09/28 12:21:09;;;;;;;3.75;0.85;;;;;;;11.16;49.50;98997.22;4992583;28;20046;-71
2022/09/28 12:23:39;;;;;;;4.25;0.95;;;;;;;11.41;48.57;99001.94;4983757;28;20118;-72
2022/09/28 12:26:15;;;;;;;3.55;0.77;;;;;;;11.56;48.22;98991.84;4991167;28;20118;-71
2022/09/28 12:28:48;;;;;;;2.83;0.98;;;;;;;11.69;47.70;98991.03;4990262;28;20047;-72
2022/09/28 12:31:39;;;;;;;4.22;0.80;;;;;;;11.70;47.29;99000.72;4992238;28;20047;-71
2022/09/28 12:34:08;;;;;;;1.45;0.82;;;;;;;11.34;47.37;99001.94;4990991;28;20134;-70
2022/09/28 12:36:41;;;;;;;1.75;0.90;;;;;;;11.66;47.14;99002.19;4986215;28;20054;-72
2022/09/28 12:39:40;;;;;;;7.43;0.90;;;;;;;11.55;47.89;99006.31;4990077;28;20054;-71
2022/09/28 12:42:26;;;;;;;2.10;0.65;;;;;;;11.73;48.15;99000.31;4984800;28;20043;-72
2022/09/28 12:45:19;;;;;;;2.67;0.80;;;;;;;11.62;48.46;98991.00;4991478;28;20047;-71
2022/09/28 12:47:57;;;;;;;1.10;0.70;;;;;;;11.43;49.54;98995.34;4992939;28;20121;-71
2022/09/28 12:50:37;;;;;;;3.05;0.98;;;;;;;11.31;49.39;98993.47;5010486;28;20046;-72
2022/09/28 12:53:23;;;;;;;3.38;0.75;;;;;;;11.83;48.23;98991.78;5012393;28;20034;-71
2022/09/28 12:56:02;;;;;;;2.22;0.90;;;;;;;11.46;48.98;99002.16;5012161;28;20052;-71
2022/09/28 12:58:37;;;;;;;1.42;0.60;;;;;;;11.44;48.75;98993.47;5010513;28;20050;-71
2022/09/28 13:01:15;;;;;;;1.27;0.47;;;;;;;11.54;47.88;98993.88;5011388;28;20042;-71
2022/09/28 13:04:06;;;;;;;1.98;1.17;;;;;;;11.77;48.35;98990.78;5011777;28;20050;-71
2022/09/28 13:06:41;;;;;;;1.80;0.75;;;;;;;11.49;49.51;98990.19;5011422;28;20050;-71
2022/09/28 13:09:18;;;;;;;1.90;0.90;;;;;;;11.74;48.85;98996.56;5012825;28;20077;-72
2022/09/28 13:11:54;;;;;;;2.67;1.13;;;;;;;11.53;49.24;98997.63;5012171;28;20050;-71
2022/09/28 13:14:33;;;;;;;2.10;0.95;;;;;;;11.53;49.11;98996.78;5011994;28;20046;-71
2022/09/28 13:17:36;;;;;;;3.10;1.20;;;;;;;11.77;48.48;98990.78;5008144;28;20050;-71
2022/09/28 13:20:12;;;;;;;3.70;0.80;;;;;;;11.94;48.41;98993.84;5012577;28;20046;-70
2022/09/28 13:22:39;;;;;;;3.55;0.80;;;;;;;11.97;47.97;98990.75;5011852;28;20056;-71
2022/09/28 13:25:15;;;;;;;3.38;0.93;;;;;;;12.24;47.39;98994.13;5010208;28;20070;-71
2022/09/28 13:27:52;;;;;;;1.80;0.70;;;;;;;12.03;47.55;98997.94;5010435;28;20069;-71
2022/09/28 13:30:19;;;;;;;1.25;0.75;;;;;;;12.28;47.00;98995.38;5011337;28;20046;-71
2022/09/28 13:32:48;;;;;;;1.40;0.80;;;;;;;11.93;47.76;98986.81;5002100;28;20158;-71
2022/09/28 13:35:20;;;;;;;2.00;0.75;;;;;;;11.83;48.16;98994.47;4994519;28;20054;-70
2022/09/28 13:37:47;;;;;;;4.25;1.23;;;;;;;12.25;47.59;98995.81;5011678;28;20057;-71
2022/09/28 13:40:14;;;;;;;1.90;1.17;;;;;;;12.46;47.84;99001.91;5011855;28;20121;-70
2022/09/28 13:42:43;;;;;;;1.98;1.10;;;;;;;12.13;48.12;99002.88;5005953;28;20034;-70
2022/09/28 13:45:31;;;;;;;1.38;0.80;;;;;;;11.72;48.42;99006.69;5010983;28;20110;-70
2022/09/28 13:48:13;;;;;;;1.50;0.70;;;;;;;11.70;48.51;99003.41;5008002;28;20057;-70
2022/09/28 13:50:54;;;;;;;2.00;1.30;;;;;;;11.39;48.78;99009.41;4991524;28;20043;-70
2022/09/28 13:53:48;;;;;;;2.42;1.05;;;;;;;11.62;47.96;99008.94;4991715;28;20061;-71
2022/09/28 13:56:35;;;;;;;9.10;4.00;;;;;;;11.91;47.78;99003.16;4993053;28;20103;-70
2022/09/28 13:59:22;;;;;;;3.17;1.50;;;;;;;12.08;47.68;99011.56;4991439;28;20106;-70
2022/09/28 14:02:16;;;;;;;6.25;1.92;;;;;;;12.34;47.38;99005.25;4991347;28;20042;-73
2022/09/28 14:04:57;;;;;;;2.35;1.15;;;;;;;12.40;46.79;99006.28;4972588;28;20058;-71
2022/09/28 14:07:25;;;;;;;7.25;3.67;;;;;;;12.29;47.28;99007.78;4990633;28;20050;-72
2022/09/28 14:10:15;;;;;;;5.28;1.20;;;;;;;12.17;47.22;99014.84;4991144;28;20047;-71
2022/09/28 14:12:46;;;;;;;3.60;1.63;;;;;;;12.54;46.32;99012.41;4991631;28;20047;-72
2022/09/28 14:15:35;;;;;;;5.55;2.17;;;;;;;12.32;47.20;99018.09;4991000;28;20498;-72
2022/09/28 14:18:30;;;;;;;3.08;1.52;;;;;;;12.19;47.84;99023.53;4989278;28;20046;-71
2022/09/28 14:21:20;;;;;;;4.15;1.52;;;;;;;11.99;48.49;99025.47;4989128;28;20145;-71
2022/09/28 14:24:01;;;;;;;3.65;1.30;;;;;;;11.81;49.11;99026.13;4960756;28;20054;-71
2022/09/28 14:27:09;;;;;;;3.07;1.17;;;;;;;12.09;48.82;99023.16;4972183;28;20035;-70
2022/09/28 14:29:37;;;;;;;3.13;1.42;;;;;;;12.46;47.82;99018.88;4955015;28;20078;-72
2022/09/28 14:32:21;;;;;;;2.17;1.10;;;;;;;12.56;47.15;99032.69;4989482;28;20053;-72
2022/09/28 14:34:57;;;;;;;3.83;0.98;;;;;;;12.56;46.63;99021.13;4989965;28;20054;-72
2022/09/28 14:43:24;;;;;;;4.82;1.20;;;;;;;12.48;47.36;99042.84;4983444;28;20047;-72
2022/09/28 14:46:13;;;;;;;2.30;0.90;;;;;;;12.45;47.19;99040.59;4988807;28;20042;-71
2022/09/28 14:48:48;;;;;;;3.55;1.27;;;;;;;12.47;46.45;99041.22;4997320;28;20469;-71
2022/09/28 14:51:28;;;;;;;1.15;0.80;;;;;;;12.53;46.01;99035.00;5007438;28;20050;-72
2022/09/28 14:54:00;;;;;;;2.45;0.90;;;;;;;12.64;45.67;99040.50;5005800;28;20057;-72
2022/09/28 14:56:55;;;;;;;3.78;0.90;;;;;;;12.64;45.66;99047.75;4998633;28;20046;-71
2022/09/28 14:59:34;;;;;;;2.90;0.80;;;;;;;12.44;46.41;99052.41;4984870;28;20479;-72
2022/09/28 15:02:07;;;;;;;2.92;0.80;;;;;;;12.65;46.45;99054.78;5007036;28;20053;-72
2022/09/28 15:04:38;;;;;;;2.28;1.20;;;;;;;12.23;47.30;99054.34;5005898;28;20046;-71
2022/09/28 15:07:05;;;;;;;1.38;1.00;;;;;;;12.21;47.33;99052.88;5006289;28;20042;-71
2022/09/28 15:09:37;;;;;;;3.80;0.70;;;;;;;12.15;47.38;99059.94;5004258;28;20053;-71
2022/09/28 15:12:11;;;;;;;4.15;1.25;;;;;;;11.93;47.29;99052.16;5006119;28;20046;-71
2022/09/28 15:14:54;;;;;;;1.38;0.90;;;;;;;12.23;46.86;99054.34;5006320;28;20498;-71
2022/09/28 15:17:25;;;;;;;2.20;1.15;;;;;;;12.48;46.24;99053.63;5005854;28;20056;-71
2022/09/28 15:20:10;;;;;;;;;;;;;;;12.43;46.42;99067.72;5005980;28;20536;-71
2022/09/28 15:22:45;;;;;;;1.67;1.10;;;;;;;12.48;45.84;99059.00;5006076;28;19932;-71